Time;durP1;ratioP1;P1;durP2;ratioP2;P2;SDS_P1;SDS_P2;PMS_P1;PMS_P2;Temp;Humidity;BMP_temperature;BMP_pressure;BME280_temperature;BME280_humidity;BME280_pressure;Samples;Min_cycle;Max_cycle;Signal;HPM_P1;HPM_P2
2022/09/19 00:00:23;;;;;;;;;5.00;5.00;;;;;;;;5044947;28;45489;-68
2022/09/19 00:02:48;;;;;;;;;4.00;4.00;;;;;;;;5044188;28;46164;-68
2022/09/19 00:05:14;;;;;;;;;5.00;5.00;;;;;;;;5044344;28;45311;-68
2022/09/19 00:07:39;;;;;;;;;7.00;4.00;;;;;;;;5044065;28;45379;-67
2022/09/19 00:10:06;;;;;;;;;4.67;4.00;;;;;;;;5025955;28;45446;-68
2022/09/19 00:12:31;;;;;;;;;5.00;3.33;;;;;;;;5042725;28;47607;-68
2022/09/19 00:14:57;;;;;;;;;4.00;4.00;;;;;;;;5044125;28;45303;-68
2022/09/19 00:17:22;;;;;;;;;3.00;3.00;;;;;;;;5044367;28;45306;-67
2022/09/19 00:19:47;;;;;;;;;3.00;3.00;;;;;;;;5044660;28;45244;-68
2022/09/19 00:22:12;;;;;;;;;4.00;4.00;;;;;;;;5043618;28;46468;-68
2022/09/19 00:24:48;;;;;;;;;4.00;4.00;;;;;;;;5044002;28;45141;-68
2022/09/19 00:27:15;;;;;;;;;3.67;3.67;;;;;;;;5043636;28;45174;-68
2022/09/19 00:29:43;;;;;;;;;3.00;3.00;;;;;;;;5043931;28;45509;-68
2022/09/19 00:32:12;;;;;;;;;3.67;3.67;;;;;;;;5043768;28;45334;-68
2022/09/19 00:34:55;;;;;;;;;4.00;3.00;;;;;;;;5043881;28;45316;-68
2022/09/19 00:37:21;;;;;;;;;1.33;1.00;;;;;;;;5025662;28;45731;-68
2022/09/19 00:39:46;;;;;;;;;3.33;3.33;;;;;;;;5044151;28;45336;-68
2022/09/19 00:42:20;;;;;;;;;2.67;2.67;;;;;;;;5043646;28;45680;-68
2022/09/19 00:44:50;;;;;;;;;2.67;2.33;;;;;;;;5043688;28;45317;-68
2022/09/19 00:47:18;;;;;;;;;3.67;2.00;;;;;;;;5043881;28;45363;-68
2022/09/19 00:49:46;;;;;;;;;4.33;3.00;;;;;;;;5042614;28;45457;-67
2022/09/19 00:52:15;;;;;;;;;3.33;3.00;;;;;;;;5042965;28;45368;-67
2022/09/19 00:54:42;;;;;;;;;5.00;3.67;;;;;;;;5043508;28;45430;-68
2022/09/19 00:57:08;;;;;;;;;2.00;2.00;;;;;;;;5043563;28;45335;-67
2022/09/19 00:59:35;;;;;;;;;4.00;4.00;;;;;;;;5043581;28;45477;-67
2022/09/19 01:02:03;;;;;;;;;2.33;2.33;;;;;;;;5043300;28;46726;-67
2022/09/19 01:04:30;;;;;;;;;3.00;2.00;;;;;;;;5025245;28;45408;-67
2022/09/19 01:07:01;;;;;;;;;2.67;2.67;;;;;;;;5043220;28;45279;-68
2022/09/19 01:09:26;;;;;;;;;3.00;3.00;;;;;;;;5025541;28;45363;-67
2022/09/19 01:11:56;;;;;;;;;2.00;2.00;;;;;;;;5043190;28;45446;-68
2022/09/19 01:14:25;;;;;;;;;2.00;2.00;;;;;;;;5025194;28;45476;-68
2022/09/19 01:16:51;;;;;;;;;3.67;3.00;;;;;;;;5043326;28;45583;-68
2022/09/19 01:19:16;;;;;;;;;3.33;3.33;;;;;;;;5043541;28;45427;-68
2022/09/19 01:21:52;;;;;;;;;2.50;2.50;;;;;;;;5042961;28;45496;-67
2022/09/19 01:24:19;;;;;;;;;3.33;2.67;;;;;;;;5043106;28;45269;-67
2022/09/19 01:27:05;;;;;;;;;3.00;3.00;;;;;;;;5042598;28;45260;-68
2022/09/19 01:29:43;;;;;;;;;4.00;4.00;;;;;;;;5043162;28;45240;-67
2022/09/19 01:32:10;;;;;;;;;5.00;4.00;;;;;;;;5042835;28;45371;-68
2022/09/19 01:34:39;;;;;;;;;4.67;4.00;;;;;;;;5042914;28;45400;-68
2022/09/19 01:37:12;;;;;;;;;3.00;3.00;;;;;;;;5042770;28;45382;-68
2022/09/19 01:39:39;;;;;;;;;3.67;3.67;;;;;;;;5043311;28;45486;-67
2022/09/19 01:42:04;;;;;;;;;3.00;2.00;;;;;;;;5042606;28;46314;-68
2022/09/19 01:44:30;;;;;;;;;2.33;2.33;;;;;;;;5042967;28;45216;-68
2022/09/19 01:47:25;;;;;;;;;3.00;3.00;;;;;;;;5041422;28;45458;-68
2022/09/19 01:50:02;;;;;;;;;3.67;3.67;;;;;;;;5045457;28;45297;-68
2022/09/19 01:52:46;;;;;;;;;5.00;3.33;;;;;;;;5042468;28;45468;-68
2022/09/19 01:55:14;;;;;;;;;3.00;3.00;;;;;;;;5042658;28;45383;-68
2022/09/19 01:57:42;;;;;;;;;6.00;4.00;;;;;;;;5042840;28;45337;-68
2022/09/19 02:00:15;;;;;;;;;4.00;4.00;;;;;;;;5043123;28;45669;-67
2022/09/19 02:02:46;;;;;;;;;4.00;4.00;;;;;;;;5042753;28;45587;-68
2022/09/19 02:05:24;;;;;;;;;3.00;3.00;;;;;;;;5042707;28;45181;-68
2022/09/19 02:07:49;;;;;;;;;2.67;2.67;;;;;;;;5024354;28;45414;-67
2022/09/19 02:10:20;;;;;;;;;3.25;3.25;;;;;;;;5043318;28;45240;-68
2022/09/19 02:12:47;;;;;;;;;2.67;2.67;;;;;;;;5042366;28;46059;-67
2022/09/19 02:15:14;;;;;;;;;3.67;3.67;;;;;;;;5042445;28;45247;-68
2022/09/19 02:17:44;;;;;;;;;4.67;4.67;;;;;;;;5042515;28;45301;-68
2022/09/19 02:20:14;;;;;;;;;6.33;4.33;;;;;;;;5041586;28;45430;-68
2022/09/19 02:22:47;;;;;;;;;6.00;6.00;;;;;;;;5041849;28;46445;-68
2022/09/19 02:25:14;;;;;;;;;4.00;4.00;;;;;;;;5040558;28;45280;-68
2022/09/19 02:27:50;;;;;;;;;4.00;4.00;;;;;;;;5024366;28;45401;-68
2022/09/19 02:30:18;;;;;;;;;4.00;4.00;;;;;;;;5042348;28;45435;-68
2022/09/19 02:32:46;;;;;;;;;5.67;5.00;;;;;;;;5042586;28;46107;-68
2022/09/19 02:35:13;;;;;;;;;3.67;3.67;;;;;;;;5045546;28;45220;-68
2022/09/19 02:37:55;;;;;;;;;3.00;3.00;;;;;;;;5045593;28;45395;-68
2022/09/19 02:40:32;;;;;;;;;3.33;3.33;;;;;;;;5045898;28;45312;-68
2022/09/19 02:43:03;;;;;;;;;4.33;4.00;;;;;;;;5045468;28;45581;-68
2022/09/19 02:45:32;;;;;;;;;3.67;3.67;;;;;;;;5045328;28;45279;-68
2022/09/19 02:47:57;;;;;;;;;4.67;4.67;;;;;;;;5045743;28;45189;-68
2022/09/19 02:50:35;;;;;;;;;4.00;4.00;;;;;;;;5045815;28;45249;-68
2022/09/19 02:53:03;;;;;;;;;7.00;5.00;;;;;;;;5045084;28;45689;-68
2022/09/19 02:55:31;;;;;;;;;3.67;3.00;;;;;;;;5045444;28;45184;-68
2022/09/19 02:57:58;;;;;;;;;4.33;4.33;;;;;;;;5027307;28;45247;-68
2022/09/19 03:00:25;;;;;;;;;6.67;5.33;;;;;;;;5045781;28;45272;-68
2022/09/19 03:02:57;;;;;;;;;5.00;5.00;;;;;;;;5044939;28;45285;-68
2022/09/19 03:05:27;;;;;;;;;5.67;5.67;;;;;;;;5045382;28;45304;-68
2022/09/19 03:08:01;;;;;;;;;5.33;5.00;;;;;;;;5044787;28;45455;-68
2022/09/19 03:10:37;;;;;;;;;8.33;7.00;;;;;;;;5044314;28;45380;-68
2022/09/19 03:13:08;;;;;;;;;4.00;4.00;;;;;;;;5045052;28;46288;-68
2022/09/19 03:15:47;;;;;;;;;5.00;5.00;;;;;;;;5045037;28;45356;-68
2022/09/19 03:18:14;;;;;;;;;5.67;5.67;;;;;;;;5045083;28;45311;-68
2022/09/19 03:20:40;;;;;;;;;6.00;5.00;;;;;;;;5045137;28;45418;-68
2022/09/19 03:23:06;;;;;;;;;7.33;5.00;;;;;;;;5044523;28;45286;-68
2022/09/19 03:25:31;;;;;;;;;1.00;1.00;;;;;;;;5044654;28;45426;-68
2022/09/19 03:27:57;;;;;;;;;4.33;4.00;;;;;;;;5044883;28;45708;-69
2022/09/19 03:30:23;;;;;;;;;7.33;6.00;;;;;;;;5045011;28;45349;-68
2022/09/19 03:32:49;;;;;;;;;5.00;3.00;;;;;;;;5044044;28;45268;-68
2022/09/19 03:35:15;;;;;;;;;5.33;5.33;;;;;;;;5044473;28;45347;-68
2022/09/19 03:37:40;;;;;;;;;8.67;6.00;;;;;;;;5026641;28;45339;-68
2022/09/19 03:40:05;;;;;;;;;7.67;7.67;;;;;;;;5044541;28;45303;-68
2022/09/19 03:42:37;;;;;;;;;9.67;8.00;;;;;;;;5044494;28;46372;-68
2022/09/19 03:45:03;;;;;;;;;8.33;7.00;;;;;;;;5043421;28;45446;-68
2022/09/19 03:47:28;;;;;;;;;5.33;5.33;;;;;;;;5044393;28;45268;-66
2022/09/19 03:49:53;;;;;;;;;4.00;4.00;;;;;;;;5043630;28;45422;-67
2022/09/19 03:52:19;;;;;;;;;6.33;6.33;;;;;;;;5041841;28;46518;-67
2022/09/19 03:54:45;;;;;;;;;4.00;4.00;;;;;;;;5024259;28;45540;-67
2022/09/19 03:57:14;;;;;;;;;5.67;5.33;;;;;;;;5042181;28;45519;-68
2022/09/19 03:59:42;;;;;;;;;6.33;6.33;;;;;;;;5042677;28;45702;-68
2022/09/19 04:02:08;;;;;;;;;4.00;4.00;;;;;;;;5042189;28;45822;-68
2022/09/19 04:04:34;;;;;;;;;3.00;3.00;;;;;;;;5041970;28;45790;-68
2022/09/19 04:07:01;;;;;;;;;5.00;5.00;;;;;;;;5043642;28;45532;-68
2022/09/19 04:09:26;;;;;;;;;4.00;4.00;;;;;;;;5026197;28;45480;-68
2022/09/19 04:11:52;;;;;;;;;5.00;5.00;;;;;;;;5043477;28;46204;-68
2022/09/19 04:14:17;;;;;;;;;4.67;3.67;;;;;;;;5040924;28;45514;-69
2022/09/19 04:16:43;;;;;;;;;3.33;3.33;;;;;;;;5024037;28;45394;-68
2022/09/19 04:19:09;;;;;;;;;5.33;5.33;;;;;;;;5042237;28;45589;-68
2022/09/19 04:21:34;;;;;;;;;5.00;5.00;;;;;;;;5041698;28;46819;-68
2022/09/19 04:24:00;;;;;;;;;4.00;4.00;;;;;;;;5041327;28;45373;-68
2022/09/19 04:26:25;;;;;;;;;3.00;3.00;;;;;;;;5042124;28;45407;-68
2022/09/19 04:28:50;;;;;;;;;6.33;5.00;;;;;;;;5043752;28;45165;-68
2022/09/19 04:31:16;;;;;;;;;4.67;4.67;;;;;;;;5043653;28;45447;-68
2022/09/19 04:33:41;;;;;;;;;8.67;6.67;;;;;;;;5043653;28;45306;-68
2022/09/19 04:36:08;;;;;;;;;7.67;6.33;;;;;;;;5044030;28;45409;-68
2022/09/19 04:38:33;;;;;;;;;6.67;6.67;;;;;;;;5043762;28;45559;-68
2022/09/19 04:40:59;;;;;;;;;7.33;6.00;;;;;;;;5043699;28;45612;-68
2022/09/19 04:43:26;;;;;;;;;6.00;5.67;;;;;;;;5042280;28;46057;-67
2022/09/19 04:45:53;;;;;;;;;8.33;7.00;;;;;;;;5043931;28;45417;-68
2022/09/19 04:48:19;;;;;;;;;9.00;8.67;;;;;;;;5025655;28;45500;-68
2022/09/19 04:50:45;;;;;;;;;8.33;6.67;;;;;;;;5042413;28;46051;-67
2022/09/19 04:53:18;;;;;;;;;13.33;9.67;;;;;;;;5042622;28;45280;-68
2022/09/19 04:55:46;;;;;;;;;8.00;5.00;;;;;;;;5042678;28;45161;-68
2022/09/19 04:58:11;;;;;;;;;8.00;7.00;;;;;;;;5042995;28;45438;-69
2022/09/19 05:00:39;;;;;;;;;14.00;13.00;;;;;;;;5042185;28;45275;-69
2022/09/19 05:03:07;;;;;;;;;8.33;6.33;;;;;;;;5043187;28;45471;-68
2022/09/19 05:05:33;;;;;;;;;8.00;8.00;;;;;;;;5042447;28;45439;-68
2022/09/19 05:07:59;;;;;;;;;7.33;6.00;;;;;;;;5041823;28;45490;-69
2022/09/19 05:10:24;;;;;;;;;9.00;7.33;;;;;;;;5041570;28;45997;-69
2022/09/19 05:12:49;;;;;;;;;6.67;5.67;;;;;;;;5024335;28;45504;-69
2022/09/19 05:15:14;;;;;;;;;7.00;7.00;;;;;;;;5042323;28;45430;-67
2022/09/19 05:17:40;;;;;;;;;8.33;6.67;;;;;;;;5024752;28;45449;-68
2022/09/19 05:20:05;;;;;;;;;8.00;7.33;;;;;;;;5042426;28;46327;-69
2022/09/19 05:22:30;;;;;;;;;9.00;8.67;;;;;;;;5041369;28;45292;-69
2022/09/19 05:25:00;;;;;;;;;10.33;9.00;;;;;;;;5042167;28;45395;-68
2022/09/19 05:27:26;;;;;;;;;10.00;9.00;;;;;;;;5023284;28;45333;-69
2022/09/19 05:29:52;;;;;;;;;10.33;7.00;;;;;;;;5041178;28;45314;-69
2022/09/19 05:32:19;;;;;;;;;8.00;8.00;;;;;;;;5041384;28;45325;-68
2022/09/19 05:34:45;;;;;;;;;7.00;7.00;;;;;;;;5041598;28;45448;-69
2022/09/19 05:37:10;;;;;;;;;8.00;8.00;;;;;;;;5023638;28;45311;-69
2022/09/19 05:39:35;;;;;;;;;6.00;6.00;;;;;;;;5040062;28;46225;-69
2022/09/19 05:42:01;;;;;;;;;6.00;6.00;;;;;;;;5041045;28;45312;-69
2022/09/19 05:44:26;;;;;;;;;6.67;6.67;;;;;;;;5041606;28;45284;-68
2022/09/19 05:46:52;;;;;;;;;11.00;8.00;;;;;;;;5022857;28;45263;-68
2022/09/19 05:49:18;;;;;;;;;7.00;7.00;;;;;;;;5039338;28;47556;-69
2022/09/19 05:51:43;;;;;;;;;9.00;7.00;;;;;;;;5041503;28;45381;-69
2022/09/19 05:54:08;;;;;;;;;7.00;6.00;;;;;;;;5041650;28;45532;-68
2022/09/19 05:56:33;;;;;;;;;6.33;6.33;;;;;;;;5041426;28;45593;-69
2022/09/19 05:58:58;;;;;;;;;8.67;6.67;;;;;;;;5041237;28;45361;-69
2022/09/19 06:01:24;;;;;;;;;7.00;7.00;;;;;;;;5023175;28;45255;-69
2022/09/19 06:03:49;;;;;;;;;12.00;7.33;;;;;;;;5041193;28;45426;-68
2022/09/19 06:06:18;;;;;;;;;7.33;7.00;;;;;;;;5040921;28;45345;-69
2022/09/19 06:08:44;;;;;;;;;7.33;6.00;;;;;;;;5040773;28;47055;-69
2022/09/19 06:11:09;;;;;;;;;11.67;9.00;;;;;;;;5044229;28;45191;-67
2022/09/19 06:16:19;;;;;;;;;6.00;6.00;;;;;;;;5044566;28;45206;-68
2022/09/19 06:18:44;;;;;;;;;11.67;10.00;;;;;;;;5042668;28;47001;-68
2022/09/19 06:21:09;;;;;;;;;10.67;9.33;;;;;;;;5043975;28;45373;-70
2022/09/19 06:23:35;;;;;;;;;15.75;13.00;;;;;;;;5043953;28;45371;-70
2022/09/19 06:26:00;;;;;;;;;13.00;10.00;;;;;;;;5044805;28;45204;-68
2022/09/19 06:28:25;;;;;;;;;9.33;9.33;;;;;;;;5041400;28;46937;-67
2022/09/19 06:30:50;;;;;;;;;11.67;11.00;;;;;;;;5042797;28;45240;-67
2022/09/19 06:33:16;;;;;;;;;14.33;13.67;;;;;;;;5041534;28;45278;-67
2022/09/19 06:35:41;;;;;;;;;18.00;17.25;;;;;;;;5025862;28;45591;-68
2022/09/19 06:38:07;;;;;;;;;21.33;15.33;;;;;;;;5041927;28;45281;-68
2022/09/19 06:40:33;;;;;;;;;14.67;14.67;;;;;;;;5044178;28;45407;-69
2022/09/19 06:43:02;;;;;;;;;20.75;16.00;;;;;;;;5044418;28;45438;-69
2022/09/19 06:45:31;;;;;;;;;12.33;11.67;;;;;;;;5040672;28;45294;-69
2022/09/19 06:47:58;;;;;;;;;12.67;12.67;;;;;;;;5034834;28;47137;-69
2022/09/19 06:50:24;;;;;;;;;14.67;12.00;;;;;;;;5043891;28;45303;-69
2022/09/19 06:52:49;;;;;;;;;13.75;13.75;;;;;;;;5042148;28;45310;-69
2022/09/19 06:55:14;;;;;;;;;17.50;17.50;;;;;;;;5044238;28;45485;-69
2022/09/19 06:57:39;;;;;;;;;17.50;15.25;;;;;;;;5044247;28;45406;-69
2022/09/19 07:00:05;;;;;;;;;19.00;14.75;;;;;;;;5042407;28;45238;-69
2022/09/19 07:02:30;;;;;;;;;24.00;17.75;;;;;;;;5043534;28;45335;-69
2022/09/19 07:04:55;;;;;;;;;12.33;12.33;;;;;;;;5043873;28;45306;-69
2022/09/19 07:07:21;;;;;;;;;14.25;12.25;;;;;;;;5043284;28;45428;-68
2022/09/19 07:09:47;;;;;;;;;16.50;14.00;;;;;;;;5043854;28;45382;-69
2022/09/19 07:12:12;;;;;;;;;11.67;9.00;;;;;;;;5041742;28;45550;-69
2022/09/19 07:14:37;;;;;;;;;8.33;8.33;;;;;;;;5043084;28;45414;-68
2022/09/19 07:17:04;;;;;;;;;10.00;10.00;;;;;;;;5043642;28;45675;-68
2022/09/19 07:19:29;;;;;;;;;9.67;5.33;;;;;;;;5043293;28;45438;-68
2022/09/19 07:21:54;;;;;;;;;8.33;6.33;;;;;;;;5043218;28;45206;-66
2022/09/19 07:24:20;;;;;;;;;9.00;7.33;;;;;;;;5025838;28;45209;-69
2022/09/19 07:26:45;;;;;;;;;8.67;5.33;;;;;;;;5043342;28;47404;-68
2022/09/19 07:29:10;;;;;;;;;5.67;5.00;;;;;;;;5053754;28;45301;-69
2022/09/19 07:31:35;;;;;;;;;3.33;3.33;;;;;;;;5035798;28;45451;-69
2022/09/19 07:34:01;;;;;;;;;3.33;3.33;;;;;;;;5043900;28;45274;-67
2022/09/19 07:36:27;;;;;;;;;9.00;5.67;;;;;;;;5043300;28;45431;-67
2022/09/19 07:38:52;;;;;;;;;5.33;5.00;;;;;;;;5043126;28;45323;-68
2022/09/19 07:41:17;;;;;;;;;8.00;5.00;;;;;;;;5043425;28;45239;-68
2022/09/19 07:43:43;;;;;;;;;7.67;6.00;;;;;;;;5032523;28;45226;-68
2022/09/19 07:46:09;;;;;;;;;8.33;6.67;;;;;;;;5043824;28;45414;-68
2022/09/19 07:48:34;;;;;;;;;7.00;6.33;;;;;;;;5043159;28;45332;-68
2022/09/19 07:51:02;;;;;;;;;6.67;5.33;;;;;;;;5041918;28;45354;-67
2022/09/19 07:53:28;;;;;;;;;3.00;3.00;;;;;;;;5043704;28;45492;-68
2022/09/19 07:55:55;;;;;;;;;8.00;4.67;;;;;;;;5043582;28;46325;-68
2022/09/19 07:58:21;;;;;;;;;6.00;6.00;;;;;;;;5042959;28;45231;-68
2022/09/19 08:00:46;;;;;;;;;6.33;4.00;;;;;;;;5042941;28;45325;-68
2022/09/19 08:03:12;;;;;;;;;3.67;3.67;;;;;;;;5042557;28;45489;-69
2022/09/19 08:05:39;;;;;;;;;3.67;3.67;;;;;;;;5042865;28;45283;-68
2022/09/19 08:08:05;;;;;;;;;5.00;5.00;;;;;;;;5041104;28;45833;-68
2022/09/19 08:10:30;;;;;;;;;3.33;3.00;;;;;;;;5042943;28;45418;-69
2022/09/19 08:12:59;;;;;;;;;4.67;4.33;;;;;;;;5043732;28;45368;-68
2022/09/19 08:15:25;;;;;;;;;4.67;4.67;;;;;;;;5043215;28;45288;-68
2022/09/19 08:17:57;;;;;;;;;2.00;2.00;;;;;;;;5043033;28;45429;-68
2022/09/19 08:20:23;;;;;;;;;2.67;2.67;;;;;;;;5043283;28;45242;-68
2022/09/19 08:22:49;;;;;;;;;5.00;3.67;;;;;;;;5043113;28;45610;-67
2022/09/19 08:25:15;;;;;;;;;5.00;5.00;;;;;;;;5024685;28;46884;-67
2022/09/19 08:27:43;;;;;;;;;4.67;2.00;;;;;;;;5042617;28;45186;-67
2022/09/19 08:30:09;;;;;;;;;3.00;3.00;;;;;;;;5042086;28;45133;-67
2022/09/19 08:32:34;;;;;;;;;1.67;1.67;;;;;;;;5042797;28;45379;-67
2022/09/19 08:34:59;;;;;;;;;1.67;1.67;;;;;;;;5042342;28;45342;-68
2022/09/19 08:37:25;;;;;;;;;3.00;3.00;;;;;;;;5042333;28;45283;-68
2022/09/19 08:42:38;;;;;;;;;11.00;11.00;;;;;;;;5041756;28;45278;-68
2022/09/19 08:45:11;;;;;;;;;2.00;2.00;;;;;;;;5041208;28;45333;-69
2022/09/19 08:47:38;;;;;;;;;3.33;0.67;;;;;;;;5042081;28;45248;-69
2022/09/19 08:50:03;;;;;;;;;3.00;1.33;;;;;;;;5042366;28;45405;-68
2022/09/19 08:52:48;;;;;;;;;2.00;1.00;;;;;;;;5042708;28;45241;-67
2022/09/19 08:55:16;;;;;;;;;3.00;2.00;;;;;;;;5042111;28;46220;-67
2022/09/19 08:57:54;;;;;;;;;7.00;6.00;;;;;;;;5042172;28;45272;-68
2022/09/19 09:00:21;;;;;;;;;0.67;0.67;;;;;;;;5042881;28;45377;-68
2022/09/19 09:02:51;;;;;;;;;3.67;3.00;;;;;;;;5024580;28;45514;-68
2022/09/19 09:05:37;;;;;;;;;2.67;1.00;;;;;;;;5042513;28;45417;-67
2022/09/19 09:08:11;;;;;;;;;1.00;1.00;;;;;;;;5010422;28;45518;-68
2022/09/19 09:10:54;;;;;;;;;3.00;3.00;;;;;;;;5042560;28;45544;-68
2022/09/19 09:13:43;;;;;;;;;1.67;1.67;;;;;;;;5042848;28;45232;-68
2022/09/19 09:16:19;;;;;;;;;1.00;1.00;;;;;;;;5042067;28;45662;-67
2022/09/19 09:19:08;;;;;;;;;2.00;2.00;;;;;;;;5042183;28;45424;-68
2022/09/19 09:21:40;;;;;;;;;2.00;1.00;;;;;;;;5041806;28;45474;-67
2022/09/19 09:24:22;;;;;;;;;3.00;3.00;;;;;;;;5040759;28;45412;-68
2022/09/19 09:26:49;;;;;;;;;0.00;0.00;;;;;;;;5041901;28;46232;-68
2022/09/19 09:29:22;;;;;;;;;0.33;0.33;;;;;;;;5029637;28;45335;-68
2022/09/19 09:31:54;;;;;;;;;0.00;0.00;;;;;;;;5042043;28;45348;-68
2022/09/19 09:34:43;;;;;;;;;1.67;0.33;;;;;;;;5042902;28;45453;-69
2022/09/19 09:37:27;;;;;;;;;2.67;2.67;;;;;;;;5049576;28;47699;-69
2022/09/19 09:40:08;;;;;;;;;1.00;1.00;;;;;;;;5041999;28;45251;-69
2022/09/19 09:42:38;;;;;;;;;2.33;2.33;;;;;;;;5041899;28;45292;-69
2022/09/19 09:45:16;;;;;;;;;3.00;2.00;;;;;;;;5046253;28;45334;-68
2022/09/19 09:47:59;;;;;;;;;0.00;0.00;;;;;;;;5043998;28;47820;-67
2022/09/19 09:50:24;;;;;;;;;2.00;0.00;;;;;;;;5046120;28;45350;-68
2022/09/19 09:53:00;;;;;;;;;2.33;2.33;;;;;;;;5045723;28;45319;-69
2022/09/19 09:58:28;;;;;;;;;4.00;1.00;;;;;;;;5045496;28;45423;-68
2022/09/19 10:03:57;;;;;;;;;2.00;2.00;;;;;;;;5046173;28;45325;-68
2022/09/19 10:06:25;;;;;;;;;3.00;2.00;;;;;;;;5046043;28;45213;-68
2022/09/19 10:09:03;;;;;;;;;2.00;1.00;;;;;;;;5045368;28;46160;-68
2022/09/19 10:11:31;;;;;;;;;0.00;0.00;;;;;;;;5027970;28;45359;-68
2022/09/19 10:14:02;;;;;;;;;0.00;0.00;;;;;;;;5045552;28;45196;-68
2022/09/19 10:16:32;;;;;;;;;2.00;2.00;;;;;;;;5045587;28;45259;-68
2022/09/19 10:19:04;;;;;;;;;4.67;2.00;;;;;;;;5045031;28;47115;-68
2022/09/19 10:21:29;;;;;;;;;1.67;1.67;;;;;;;;5044352;28;45528;-68
2022/09/19 10:23:56;;;;;;;;;2.00;2.00;;;;;;;;5044789;28;45374;-69
2022/09/19 10:26:26;;;;;;;;;2.33;1.00;;;;;;;;5045480;28;45422;-68
2022/09/19 10:28:59;;;;;;;;;1.67;1.00;;;;;;;;5044104;28;46318;-68
2022/09/19 10:31:34;;;;;;;;;1.00;1.00;;;;;;;;5043897;28;45326;-70
2022/09/19 10:34:04;;;;;;;;;0.33;0.33;;;;;;;;5043055;28;45458;-69
2022/09/19 10:36:33;;;;;;;;;3.00;0.00;;;;;;;;5044980;28;45533;-68
2022/09/19 10:38:59;;;;;;;;;0.67;0.00;;;;;;;;5044489;28;45498;-68
2022/09/19 10:41:26;;;;;;;;;1.00;1.00;;;;;;;;5026046;28;45453;-69
2022/09/19 10:43:59;;;;;;;;;3.00;1.00;;;;;;;;5041847;28;45537;-68
2022/09/19 10:46:35;;;;;;;;;0.67;0.67;;;;;;;;5044492;28;45569;-68
2022/09/19 10:49:02;;;;;;;;;0.67;0.67;;;;;;;;5044150;28;45456;-69
2022/09/19 10:51:35;;;;;;;;;0.00;0.00;;;;;;;;5044012;28;45795;-69
2022/09/19 10:54:05;;;;;;;;;0.00;0.00;;;;;;;;5043758;28;45244;-68
2022/09/19 10:56:33;;;;;;;;;1.00;1.00;;;;;;;;5044345;28;45622;-68
2022/09/19 10:59:02;;;;;;;;;0.00;0.00;;;;;;;;5044177;28;45696;-69
2022/09/19 11:01:28;;;;;;;;;0.00;0.00;;;;;;;;5043723;28;45405;-69
2022/09/19 11:04:01;;;;;;;;;4.00;2.00;;;;;;;;5044219;28;45369;-68
2022/09/19 11:06:26;;;;;;;;;3.00;1.00;;;;;;;;5044197;28;45497;-68
2022/09/19 11:08:53;;;;;;;;;2.00;0.00;;;;;;;;5043791;28;45395;-69
2022/09/19 11:11:46;;;;;;;;;1.00;1.00;;;;;;;;5043814;28;45479;-68
2022/09/19 11:14:19;;;;;;;;;0.33;0.33;;;;;;;;5043778;28;45288;-68
2022/09/19 11:17:02;;;;;;;;;1.67;1.33;;;;;;;;5044333;28;45591;-69
2022/09/19 11:19:33;;;;;;;;;0.33;0.00;;;;;;;;5042486;28;45272;-68
2022/09/19 11:22:04;;;;;;;;;7.00;4.00;;;;;;;;5043127;28;45528;-69
2022/09/19 11:24:49;;;;;;;;;1.00;1.00;;;;;;;;5042953;28;45304;-69
2022/09/19 11:27:17;;;;;;;;;4.00;2.00;;;;;;;;5041558;28;45576;-68
2022/09/19 11:29:51;;;;;;;;;0.67;0.67;;;;;;;;5043148;28;45358;-68
2022/09/19 11:32:35;;;;;;;;;0.33;0.33;;;;;;;;5041136;28;45427;-68
2022/09/19 11:35:03;;;;;;;;;3.33;2.00;;;;;;;;5040145;28;45375;-68
2022/09/19 11:37:41;;;;;;;;;1.00;1.00;;;;;;;;5043076;28;45367;-68
2022/09/19 11:40:10;;;;;;;;;0.00;0.00;;;;;;;;5024066;28;48140;-68
2022/09/19 11:42:50;;;;;;;;;1.00;1.00;;;;;;;;5038158;28;45245;-68
2022/09/19 11:45:17;;;;;;;;;0.67;0.67;;;;;;;;5022089;28;45288;-69
2022/09/19 11:47:52;;;;;;;;;2.00;2.00;;;;;;;;5043079;28;45443;-69
2022/09/19 11:50:29;;;;;;;;;9.67;7.00;;;;;;;;5041884;28;45484;-69
2022/09/19 11:53:05;;;;;;;;;0.33;0.33;;;;;;;;5040539;28;45399;-69
2022/09/19 11:55:46;;;;;;;;;0.00;0.00;;;;;;;;5043136;28;45367;-69
2022/09/19 11:58:24;;;;;;;;;1.00;1.00;;;;;;;;5025708;28;45652;-69
2022/09/19 12:01:00;;;;;;;;;2.00;1.00;;;;;;;;5025583;28;47310;-69
2022/09/19 12:03:50;;;;;;;;;3.00;1.00;;;;;;;;5042328;28;45441;-69
2022/09/19 12:06:31;;;;;;;;;1.00;1.00;;;;;;;;5042359;28;45219;-68
2022/09/19 12:09:02;;;;;;;;;2.33;1.00;;;;;;;;5041362;28;45502;-69
2022/09/19 12:11:37;;;;;;;;;1.33;1.00;;;;;;;;5042644;28;45383;-68
2022/09/19 12:14:07;;;;;;;;;3.00;1.00;;;;;;;;5043104;28;45513;-68
2022/09/19 12:16:41;;;;;;;;;2.33;2.33;;;;;;;;5033823;28;45484;-69
2022/09/19 12:19:12;;;;;;;;;1.00;1.00;;;;;;;;5043893;28;45525;-68
2022/09/19 12:21:39;;;;;;;;;3.00;3.00;;;;;;;;5055557;28;47207;-67
2022/09/19 12:27:01;;;;;;;;;0.00;0.00;;;;;;;;5040968;28;45326;-68
2022/09/19 12:29:36;;;;;;;;;2.00;1.00;;;;;;;;5043344;28;45490;-68
2022/09/19 12:32:06;;;;;;;;;2.00;1.00;;;;;;;;5041197;28;45468;-69
2022/09/19 12:34:35;;;;;;;;;1.33;1.00;;;;;;;;5042993;28;45343;-69
2022/09/19 12:37:08;;;;;;;;;3.00;1.33;;;;;;;;5024914;28;45342;-68
2022/09/19 12:39:36;;;;;;;;;1.33;1.00;;;;;;;;5054646;28;45321;-68
2022/09/19 12:42:09;;;;;;;;;3.00;1.33;;;;;;;;5040756;28;46025;-69
2022/09/19 12:44:39;;;;;;;;;2.00;2.00;;;;;;;;5040496;28;45394;-69
2022/09/19 12:47:07;;;;;;;;;2.00;2.00;;;;;;;;5042811;28;45437;-69
2022/09/19 12:49:38;;;;;;;;;3.00;3.00;;;;;;;;5043278;28;45504;-69
2022/09/19 12:52:09;;;;;;;;;2.00;1.00;;;;;;;;5040967;28;46440;-67
2022/09/19 12:54:44;;;;;;;;;1.33;1.33;;;;;;;;5039977;28;45374;-69
2022/09/19 12:57:22;;;;;;;;;6.00;4.33;;;;;;;;5032700;28;45378;-69
2022/09/19 12:59:50;;;;;;;;;3.67;2.00;;;;;;;;5042593;28;46493;-69
2022/09/19 13:02:18;;;;;;;;;1.00;1.00;;;;;;;;5042803;28;46083;-69
2022/09/19 13:04:51;;;;;;;;;2.00;2.00;;;;;;;;5025170;28;45035;-69
2022/09/19 13:07:18;;;;;;;;;3.00;1.00;;;;;;;;5042945;28;45232;-69
2022/09/19 13:09:49;;;;;;;;;2.67;1.00;;;;;;;;5043005;28;45557;-69
2022/09/19 13:12:17;;;;;;;;;4.00;2.00;;;;;;;;5042645;28;46224;-69
2022/09/19 13:14:46;;;;;;;;;1.67;1.67;;;;;;;;5043335;28;45358;-68
2022/09/19 13:25:29;;;;;;;;;2.00;2.00;;;;;;;;5042749;28;45509;-68
2022/09/19 13:28:13;;;;;;;;;4.00;2.00;;;;;;;;5042661;28;45248;-69
2022/09/19 13:30:48;;;;;;;;;5.33;2.33;;;;;;;;5042850;28;45473;-69
2022/09/19 13:33:20;;;;;;;;;1.00;1.00;;;;;;;;5040868;28;47674;-68
2022/09/19 13:35:50;;;;;;;;;1.67;1.00;;;;;;;;5024592;28;45338;-69
2022/09/19 13:38:19;;;;;;;;;2.00;2.00;;;;;;;;5042640;28;45326;-69
2022/09/19 13:40:48;;;;;;;;;3.33;2.00;;;;;;;;5042952;28;45348;-69
2022/09/19 13:43:13;;;;;;;;;1.67;1.67;;;;;;;;5042523;28;45299;-69
2022/09/19 13:45:57;;;;;;;;;2.00;2.00;;;;;;;;5042732;28;45201;-68
2022/09/19 13:48:38;;;;;;;;;2.00;1.00;;;;;;;;5042565;28;45403;-68
2022/09/19 13:51:08;;;;;;;;;1.00;1.00;;;;;;;;5042532;28;45399;-67
2022/09/19 13:53:43;;;;;;;;;1.00;1.00;;;;;;;;5041841;28;46461;-67
2022/09/19 13:56:24;;;;;;;;;1.00;1.00;;;;;;;;5042367;28;45244;-67
2022/09/19 13:59:07;;;;;;;;;2.00;1.00;;;;;;;;5042522;28;45441;-68
2022/09/19 14:01:36;;;;;;;;;6.33;6.00;;;;;;;;5042434;28;45263;-69
2022/09/19 14:04:52;;;;;;;;;4.00;4.00;;;;;;;;5041912;28;46642;-69
2022/09/19 14:06:58;;;;;;;;;5.00;1.00;;;;;;;;5041945;28;45452;-69
2022/09/19 14:09:33;;;;;;;;;0.00;0.00;;;;;;;;5042202;28;45367;-69
2022/09/19 14:11:58;;;;;;;;;1.00;1.00;;;;;;;;5042532;28;45272;-69
2022/09/19 14:14:40;;;;;;;;;2.33;2.33;;;;;;;;5041766;28;45939;-68
2022/09/19 14:17:32;;;;;;;;;2.00;1.00;;;;;;;;5042165;28;45265;-67
2022/09/19 14:20:01;;;;;;;;;3.00;3.00;;;;;;;;5038990;28;45554;-68
2022/09/19 14:22:32;;;;;;;;;1.00;1.00;;;;;;;;5040325;28;45440;-69
2022/09/19 14:25:03;;;;;;;;;2.67;2.00;;;;;;;;5041636;28;45341;-68
2022/09/19 14:27:28;;;;;;;;;2.00;2.00;;;;;;;;5041154;28;45474;-69
2022/09/19 14:29:59;;;;;;;;;3.00;3.00;;;;;;;;5042972;28;45425;-69
2022/09/19 14:32:34;;;;;;;;;1.00;1.00;;;;;;;;5045281;28;45332;-69
2022/09/19 14:35:11;;;;;;;;;3.33;2.00;;;;;;;;5044824;28;45569;-68
2022/09/19 14:37:46;;;;;;;;;1.00;1.00;;;;;;;;5044167;28;45377;-68
2022/09/19 14:40:30;;;;;;;;;3.33;3.33;;;;;;;;5026482;28;45401;-68
2022/09/19 14:43:15;;;;;;;;;2.00;2.00;;;;;;;;5044849;28;45496;-69
2022/09/19 14:46:03;;;;;;;;;2.33;1.00;;;;;;;;5031154;28;46653;-69
2022/09/19 14:48:45;;;;;;;;;1.00;1.00;;;;;;;;5044236;28;45430;-68
2022/09/19 14:51:10;;;;;;;;;0.33;0.33;;;;;;;;5044331;28;45295;-69
2022/09/19 14:53:37;;;;;;;;;2.67;2.00;;;;;;;;5026872;28;45530;-68
2022/09/19 14:56:09;;;;;;;;;3.00;2.00;;;;;;;;5044756;28;46438;-68
2022/09/19 14:58:35;;;;;;;;;3.67;2.00;;;;;;;;5044966;28;45263;-69
2022/09/19 15:01:11;;;;;;;;;2.33;1.67;;;;;;;;5045152;28;45355;-69
2022/09/19 15:03:45;;;;;;;;;3.00;2.67;;;;;;;;5045459;28;45386;-67
2022/09/19 15:06:36;;;;;;;;;2.00;2.00;;;;;;;;5025976;28;45506;-68
2022/09/19 15:09:02;;;;;;;;;4.00;2.67;;;;;;;;5041132;28;45291;-68
2022/09/19 15:11:29;;;;;;;;;1.67;1.00;;;;;;;;5044168;28;45231;-69
2022/09/19 15:13:56;;;;;;;;;2.00;1.00;;;;;;;;5045139;28;45279;-68
2022/09/19 15:16:22;;;;;;;;;1.67;1.67;;;;;;;;5043067;28;46593;-68
2022/09/19 15:18:50;;;;;;;;;0.00;0.00;;;;;;;;5044252;28;45339;-68